sensor_id;sensor_type;location;lat;lon;timestamp;pressure;altitude;pressure_sealevel;temperature;humidity
73516;BME280;61763;51.416;5.442;2023-04-10T00:01:34;102030.22;;;6.76;100.00
73516;BME280;61763;51.416;5.442;2023-04-10T00:04:01;102021.31;;;6.72;100.00
73516;BME280;61763;51.416;5.442;2023-04-10T00:06:27;102018.69;;;6.69;100.00
73516;BME280;61763;51.416;5.442;2023-04-10T00:08:54;102007.03;;;6.72;100.00
73516;BME280;61763;51.416;5.442;2023-04-10T00:11:19;102001.75;;;6.67;100.00
73516;BME280;61763;51.416;5.442;2023-04-10T00:13:45;101998.88;;;6.78;100.00
73516;BME280;61763;51.416;5.442;2023-04-10T00:16:10;102001.50;;;6.82;100.00
73516;BME280;61763;51.416;5.442;2023-04-10T00:18:35;101995.25;;;6.82;100.00
73516;BME280;61763;51.416;5.442;2023-04-10T00:21:04;101984.25;;;6.97;100.00
73516;BME280;61763;51.416;5.442;2023-04-10T00:23:30;101982.81;;;6.76;100.00
73516;BME280;61763;51.416;5.442;2023-04-10T00:25:59;101970.88;;;6.94;100.00
73516;BME280;61763;51.416;5.442;2023-04-10T00:28:25;101963.91;;;6.84;100.00
73516;BME280;61763;51.416;5.442;2023-04-10T00:30:51;101972.16;;;6.72;100.00
73516;BME280;61763;51.416;5.442;2023-04-10T00:33:16;101978.66;;;6.57;100.00
73516;BME280;61763;51.416;5.442;2023-04-10T00:35:42;101971.56;;;6.53;100.00
73516;BME280;61763;51.416;5.442;2023-04-10T00:38:07;101968.13;;;6.43;100.00
73516;BME280;61763;51.416;5.442;2023-04-10T00:40:33;101960.25;;;6.32;100.00
73516;BME280;61763;51.416;5.442;2023-04-10T00:42:59;101972.84;;;6.25;100.00
73516;BME280;61763;51.416;5.442;2023-04-10T00:45:24;101963.94;;;6.25;100.00
73516;BME280;61763;51.416;5.442;2023-04-10T00:47:53;101957.88;;;6.10;100.00
73516;BME280;61763;51.416;5.442;2023-04-10T00:50:19;101958.00;;;6.01;100.00
73516;BME280;61763;51.416;5.442;2023-04-10T00:52:47;101958.09;;;5.92;100.00
73516;BME280;61763;51.416;5.442;2023-04-10T00:55:14;101956.41;;;5.85;100.00
73516;BME280;61763;51.416;5.442;2023-04-10T00:57:44;101955.59;;;5.78;100.00
73516;BME280;61763;51.416;5.442;2023-04-10T01:00:12;101952.09;;;5.73;100.00
73516;BME280;61763;51.416;5.442;2023-04-10T01:02:38;101955.72;;;5.67;100.00
73516;BME280;61763;51.416;5.442;2023-04-10T01:05:08;101957.56;;;5.62;100.00
73516;BME280;61763;51.416;5.442;2023-04-10T01:07:50;101954.94;;;5.57;100.00
73516;BME280;61763;51.416;5.442;2023-04-10T01:13:06;101948.81;;;5.46;100.00
73516;BME280;61763;51.416;5.442;2023-04-10T01:15:50;101947.00;;;5.51;100.00
73516;BME280;61763;51.416;5.442;2023-04-10T01:18:23;101950.56;;;5.49;100.00
73516;BME280;61763;51.416;5.442;2023-04-10T01:20:50;101944.31;;;5.51;100.00
73516;BME280;61763;51.416;5.442;2023-04-10T01:29:08;101932.72;;;5.51;100.00
73516;BME280;61763;51.416;5.442;2023-04-10T01:34:24;101934.53;;;5.47;100.00
73516;BME280;61763;51.416;5.442;2023-04-10T01:36:59;101939.84;;;5.50;100.00
73516;BME280;61763;51.416;5.442;2023-04-10T01:39:26;101935.41;;;5.49;100.00
73516;BME280;61763;51.416;5.442;2023-04-10T01:41:53;101930.97;;;5.48;100.00
73516;BME280;61763;51.416;5.442;2023-04-10T01:44:22;101939.09;;;5.39;100.00
73516;BME280;61763;51.416;5.442;2023-04-10T01:46:51;101931.13;;;5.33;100.00
73516;BME280;61763;51.416;5.442;2023-04-10T01:49:17;101924.91;;;5.31;100.00
73516;BME280;61763;51.416;5.442;2023-04-10T01:51:44;101928.50;;;5.28;100.00
73516;BME280;61763;51.416;5.442;2023-04-10T01:54:12;101918.72;;;5.25;100.00
73516;BME280;61763;51.416;5.442;2023-04-10T01:56:38;101920.56;;;5.20;100.00
73516;BME280;61763;51.416;5.442;2023-04-10T01:59:04;101916.13;;;5.18;100.00
73516;BME280;61763;51.416;5.442;2023-04-10T02:01:30;101912.59;;;5.14;100.00
73516;BME280;61763;51.416;5.442;2023-04-10T02:03:57;101911.72;;;5.12;100.00
73516;BME280;61763;51.416;5.442;2023-04-10T02:06:48;101898.31;;;5.14;100.00
73516;BME280;61763;51.416;5.442;2023-04-10T02:09:30;101895.63;;;5.17;100.00
73516;BME280;61763;51.416;5.442;2023-04-10T02:12:04;101893.78;;;5.22;100.00
73516;BME280;61763;51.416;5.442;2023-04-10T02:14:31;101890.28;;;5.17;100.00
73516;BME280;61763;51.416;5.442;2023-04-10T02:16:59;101878.66;;;5.18;100.00
73516;BME280;61763;51.416;5.442;2023-04-10T02:19:26;101875.91;;;5.24;100.00
73516;BME280;61763;51.416;5.442;2023-04-10T02:21:53;101874.00;;;5.34;100.00
73516;BME280;61763;51.416;5.442;2023-04-10T02:24:19;101879.44;;;5.29;100.00
73516;BME280;61763;51.416;5.442;2023-04-10T02:26:51;101872.25;;;5.31;100.00
73516;BME280;61763;51.416;5.442;2023-04-10T02:29:17;101868.56;;;5.41;100.00
73516;BME280;61763;51.416;5.442;2023-04-10T02:31:44;101863.88;;;5.59;100.00
73516;BME280;61763;51.416;5.442;2023-04-10T02:34:10;101860.13;;;5.71;100.00
73516;BME280;61763;51.416;5.442;2023-04-10T02:36:39;101861.06;;;5.70;100.00
73516;BME280;61763;51.416;5.442;2023-04-10T02:39:05;101869.13;;;5.65;100.00
73516;BME280;61763;51.416;5.442;2023-04-10T02:41:32;101858.44;;;5.64;100.00
73516;BME280;61763;51.416;5.442;2023-04-10T02:43:57;101863.75;;;5.68;100.00
73516;BME280;61763;51.416;5.442;2023-04-10T02:46:22;101863.81;;;5.64;100.00
73516;BME280;61763;51.416;5.442;2023-04-10T02:48:48;101847.97;;;5.47;100.00
73516;BME280;61763;51.416;5.442;2023-04-10T02:51:14;101862.81;;;5.71;100.00
73516;BME280;61763;51.416;5.442;2023-04-10T02:53:39;101862.81;;;5.71;100.00
73516;BME280;61763;51.416;5.442;2023-04-10T02:56:05;101861.97;;;5.69;100.00
73516;BME280;61763;51.416;5.442;2023-04-10T02:58:36;101861.09;;;5.67;100.00
73516;BME280;61763;51.416;5.442;2023-04-10T03:01:03;101864.56;;;5.73;100.00
73516;BME280;61763;51.416;5.442;2023-04-10T03:03:29;101856.56;;;5.72;100.00
73516;BME280;61763;51.416;5.442;2023-04-10T03:05:54;101862.66;;;5.83;100.00
73516;BME280;61763;51.416;5.442;2023-04-10T03:08:20;101860.03;;;5.80;100.00
73516;BME280;61763;51.416;5.442;2023-04-10T03:10:46;101854.56;;;5.88;100.00
73516;BME280;61763;51.416;5.442;2023-04-10T03:13:15;101857.31;;;5.83;100.00
73516;BME280;61763;51.416;5.442;2023-04-10T03:15:41;101867.16;;;5.81;100.00
73516;BME280;61763;51.416;5.442;2023-04-10T03:18:06;101860.88;;;5.82;100.00
73516;BME280;61763;51.416;5.442;2023-04-10T03:20:34;101863.69;;;5.73;100.00
73516;BME280;61763;51.416;5.442;2023-04-10T03:23:00;101862.03;;;5.64;100.00
73516;BME280;61763;51.416;5.442;2023-04-10T03:25:25;101871.13;;;5.51;100.00
73516;BME280;61763;51.416;5.442;2023-04-10T03:27:57;101868.41;;;5.54;100.00
73516;BME280;61763;51.416;5.442;2023-04-10T03:30:22;101864.09;;;5.42;100.00
73516;BME280;61763;51.416;5.442;2023-04-10T03:32:47;101868.72;;;5.29;100.00
73516;BME280;61763;51.416;5.442;2023-04-10T03:35:13;101865.13;;;5.32;100.00
73516;BME280;61763;51.416;5.442;2023-04-10T03:37:38;101869.69;;;5.23;100.00
73516;BME280;61763;51.416;5.442;2023-04-10T03:40:06;101859.97;;;5.15;100.00
73516;BME280;61763;51.416;5.442;2023-04-10T03:42:32;101859.13;;;5.11;100.00
73516;BME280;61763;51.416;5.442;2023-04-10T03:44:57;101854.78;;;5.01;100.00
73516;BME280;61763;51.416;5.442;2023-04-10T03:47:22;101846.78;;;4.98;100.00
73516;BME280;61763;51.416;5.442;2023-04-10T03:49:50;101836.16;;;4.90;100.00
73516;BME280;61763;51.416;5.442;2023-04-10T03:52:15;101841.31;;;5.07;100.00
73516;BME280;61763;51.416;5.442;2023-04-10T03:54:40;101836.09;;;4.96;100.00
73516;BME280;61763;51.416;5.442;2023-04-10T03:57:06;101820.28;;;4.74;100.00
73516;BME280;61763;51.416;5.442;2023-04-10T03:59:32;101832.78;;;4.71;100.00
73516;BME280;61763;51.416;5.442;2023-04-10T04:01:57;101835.59;;;4.59;100.00
73516;BME280;61763;51.416;5.442;2023-04-10T04:04:22;101840.94;;;4.59;100.00
73516;BME280;61763;51.416;5.442;2023-04-10T04:06:48;101838.16;;;4.69;100.00
73516;BME280;61763;51.416;5.442;2023-04-10T04:09:13;101840.88;;;4.65;100.00
73516;BME280;61763;51.416;5.442;2023-04-10T04:11:38;101843.63;;;4.55;100.00
73516;BME280;61763;51.416;5.442;2023-04-10T04:14:04;101834.75;;;4.50;100.00
73516;BME280;61763;51.416;5.442;2023-04-10T04:16:30;101831.75;;;4.87;100.00
73516;BME280;61763;51.416;5.442;2023-04-10T04:18:55;101830.09;;;4.76;100.00
73516;BME280;61763;51.416;5.442;2023-04-10T04:21:20;101822.03;;;4.77;100.00
73516;BME280;61763;51.416;5.442;2023-04-10T04:23:46;101813.25;;;4.64;100.00
73516;BME280;61763;51.416;5.442;2023-04-10T04:26:11;101825.81;;;4.54;100.00
73516;BME280;61763;51.416;5.442;2023-04-10T04:28:37;101814.06;;;4.69;100.00
73516;BME280;61763;51.416;5.442;2023-04-10T04:31:02;101811.13;;;4.94;100.00
73516;BME280;61763;51.416;5.442;2023-04-10T04:33:27;101805.69;;;5.02;100.00
73516;BME280;61763;51.416;5.442;2023-04-10T04:35:53;101806.41;;;5.18;100.00
73516;BME280;61763;51.416;5.442;2023-04-10T04:38:18;101803.63;;;5.24;100.00
73516;BME280;61763;51.416;5.442;2023-04-10T04:40:44;101807.81;;;5.47;100.00
73516;BME280;61763;51.416;5.442;2023-04-10T04:43:10;101804.25;;;5.44;100.00
73516;BME280;61763;51.416;5.442;2023-04-10T04:45:35;101799.13;;;5.29;100.00
73516;BME280;61763;51.416;5.442;2023-04-10T04:48:01;101807.31;;;5.15;100.00
73516;BME280;61763;51.416;5.442;2023-04-10T04:50:26;101808.16;;;5.20;100.00
73516;BME280;61763;51.416;5.442;2023-04-10T04:52:51;101804.13;;;5.55;100.00
73516;BME280;61763;51.416;5.442;2023-04-10T04:55:17;101807.69;;;5.56;100.00
73516;BME280;61763;51.416;5.442;2023-04-10T04:57:42;101800.50;;;5.59;100.00
73516;BME280;61763;51.416;5.442;2023-04-10T05:00:08;101804.09;;;5.57;100.00
73516;BME280;61763;51.416;5.442;2023-04-10T05:02:33;101797.72;;;5.67;100.00
73516;BME280;61763;51.416;5.442;2023-04-10T05:04:59;101794.31;;;5.54;100.00
73516;BME280;61763;51.416;5.442;2023-04-10T05:07:24;101791.50;;;5.64;100.00
73516;BME280;61763;51.416;5.442;2023-04-10T05:09:50;101791.66;;;5.53;100.00
73516;BME280;61763;51.416;5.442;2023-04-10T05:12:15;101777.91;;;5.77;100.00
73516;BME280;61763;51.416;5.442;2023-04-10T05:14:41;101781.28;;;5.89;100.00
73516;BME280;61763;51.416;5.442;2023-04-10T05:17:07;101777.72;;;5.90;100.00
73516;BME280;61763;51.416;5.442;2023-04-10T05:19:32;101770.63;;;5.86;100.00
73516;BME280;61763;51.416;5.442;2023-04-10T05:21:58;101764.16;;;6.02;100.00
73516;BME280;61763;51.416;5.442;2023-04-10T05:24:23;101764.09;;;6.07;100.00
73516;BME280;61763;51.416;5.442;2023-04-10T05:26:48;101765.13;;;5.95;100.00
73516;BME280;61763;51.416;5.442;2023-04-10T05:29:14;101769.38;;;6.10;100.00
73516;BME280;61763;51.416;5.442;2023-04-10T05:31:39;101769.28;;;6.16;100.00
73516;BME280;61763;51.416;5.442;2023-04-10T05:34:05;101764.69;;;6.24;100.00
73516;BME280;61763;51.416;5.442;2023-04-10T05:36:30;101769.88;;;6.34;100.00
73516;BME280;61763;51.416;5.442;2023-04-10T05:38:57;101775.25;;;6.32;100.00
73516;BME280;61763;51.416;5.442;2023-04-10T05:41:22;101775.97;;;6.42;100.00
73516;BME280;61763;51.416;5.442;2023-04-10T05:43:48;101776.78;;;6.47;100.00
73516;BME280;61763;51.416;5.442;2023-04-10T05:46:14;101774.88;;;6.54;100.00
73516;BME280;61763;51.416;5.442;2023-04-10T05:48:39;101769.50;;;6.55;100.00
73516;BME280;61763;51.416;5.442;2023-04-10T05:51:05;101773.56;;;6.75;100.00
73516;BME280;61763;51.416;5.442;2023-04-10T05:53:30;101769.94;;;6.79;100.00
73516;BME280;61763;51.416;5.442;2023-04-10T05:56:00;101778.03;;;6.76;100.00
73516;BME280;61763;51.416;5.442;2023-04-10T05:58:27;101770.66;;;6.86;100.00
73516;BME280;61763;51.416;5.442;2023-04-10T06:00:53;101776.94;;;6.86;100.00
73516;BME280;61763;51.416;5.442;2023-04-10T06:03:19;101766.13;;;6.91;100.00
73516;BME280;61763;51.416;5.442;2023-04-10T06:05:45;101786.50;;;6.99;100.00
73516;BME280;61763;51.416;5.442;2023-04-10T06:08:10;101775.72;;;7.03;100.00
73516;BME280;61763;51.416;5.442;2023-04-10T06:10:39;101777.31;;;7.11;100.00
73516;BME280;61763;51.416;5.442;2023-04-10T06:13:05;101769.94;;;7.21;100.00
73516;BME280;61763;51.416;5.442;2023-04-10T06:15:30;101774.94;;;7.38;97.97
73516;BME280;61763;51.416;5.442;2023-04-10T06:17:56;101772.03;;;7.47;97.40
73516;BME280;61763;51.416;5.442;2023-04-10T06:20:21;101768.28;;;7.56;96.59
73516;BME280;61763;51.416;5.442;2023-04-10T06:22:46;101773.03;;;7.82;94.95
73516;BME280;61763;51.416;5.442;2023-04-10T06:25:12;101769.22;;;7.93;95.00
73516;BME280;61763;51.416;5.442;2023-04-10T06:27:38;101764.53;;;7.99;94.08
73516;BME280;61763;51.416;5.442;2023-04-10T06:30:05;101762.56;;;8.07;92.49
73516;BME280;61763;51.416;5.442;2023-04-10T06:32:30;101746.84;;;8.27;89.81
73516;BME280;61763;51.416;5.442;2023-04-10T06:34:56;101746.72;;;8.31;89.12
73516;BME280;61763;51.416;5.442;2023-04-10T06:37:28;101739.16;;;8.47;89.19
73516;BME280;61763;51.416;5.442;2023-04-10T06:40:08;101736.84;;;8.66;86.54
73516;BME280;61763;51.416;5.442;2023-04-10T06:42:34;101732.69;;;8.86;85.36
73516;BME280;61763;51.416;5.442;2023-04-10T06:45:00;101724.50;;;8.89;84.46
73516;BME280;61763;51.416;5.442;2023-04-10T06:47:25;101727.16;;;8.90;84.74
73516;BME280;61763;51.416;5.442;2023-04-10T06:49:51;101718.75;;;9.03;82.71
73516;BME280;61763;51.416;5.442;2023-04-10T06:52:17;101718.50;;;9.10;82.27
73516;BME280;61763;51.416;5.442;2023-04-10T06:54:42;101719.13;;;9.20;81.11
73516;BME280;61763;51.416;5.442;2023-04-10T06:57:08;101705.84;;;9.42;80.45
73516;BME280;61763;51.416;5.442;2023-04-10T06:59:33;101703.97;;;9.44;79.14
73516;BME280;61763;51.416;5.442;2023-04-10T07:02:02;101701.41;;;9.68;78.96
73516;BME280;61763;51.416;5.442;2023-04-10T07:04:28;101684.75;;;9.55;78.13
73516;BME280;61763;51.416;5.442;2023-04-10T07:06:56;101690.31;;;9.77;77.94
73516;BME280;61763;51.416;5.442;2023-04-10T07:09:24;101692.00;;;9.81;77.63
73516;BME280;61763;51.416;5.442;2023-04-10T07:11:50;101683.56;;;9.91;76.19
73516;BME280;61763;51.416;5.442;2023-04-10T07:14:17;101679.09;;;9.91;76.36
73516;BME280;61763;51.416;5.442;2023-04-10T07:16:43;101683.56;;;9.91;75.86
73516;BME280;61763;51.416;5.442;2023-04-10T07:19:08;101676.94;;;10.01;75.45
73516;BME280;61763;51.416;5.442;2023-04-10T07:21:34;101672.59;;;9.97;74.18
73516;BME280;61763;51.416;5.442;2023-04-10T07:24:00;101660.91;;;10.23;73.71
73516;BME280;61763;51.416;5.442;2023-04-10T07:26:25;101667.16;;;10.24;73.87
73516;BME280;61763;51.416;5.442;2023-04-10T07:28:51;101655.41;;;10.26;73.74
73516;BME280;61763;51.416;5.442;2023-04-10T07:31:16;101647.94;;;10.33;74.09
73516;BME280;61763;51.416;5.442;2023-04-10T07:33:45;101651.16;;;10.44;74.25
73516;BME280;61763;51.416;5.442;2023-04-10T07:36:11;101648.00;;;10.31;72.92
73516;BME280;61763;51.416;5.442;2023-04-10T07:38:36;101648.25;;;10.50;75.13
73516;BME280;61763;51.416;5.442;2023-04-10T07:41:03;101651.88;;;10.73;73.48
73516;BME280;61763;51.416;5.442;2023-04-10T07:43:28;101644.84;;;10.93;71.39
73516;BME280;61763;51.416;5.442;2023-04-10T07:45:55;101635.84;;;10.92;71.11
73516;BME280;61763;51.416;5.442;2023-04-10T07:48:21;101624.88;;;10.97;70.62
73516;BME280;61763;51.416;5.442;2023-04-10T07:50:46;101626.91;;;11.14;70.19
73516;BME280;61763;51.416;5.442;2023-04-10T07:53:12;101617.75;;;11.18;68.15
73516;BME280;61763;51.416;5.442;2023-04-10T07:58:05;101606.00;;;11.41;68.74
73516;BME280;61763;51.416;5.442;2023-04-10T08:00:31;101602.22;;;11.66;66.42
73516;BME280;61763;51.416;5.442;2023-04-10T08:02:57;101597.81;;;11.85;66.43
73516;BME280;61763;51.416;5.442;2023-04-10T08:05:22;101584.59;;;12.19;64.21
73516;BME280;61763;51.416;5.442;2023-04-10T08:07:47;101579.97;;;12.22;64.06
73516;BME280;61763;51.416;5.442;2023-04-10T08:10:13;101578.97;;;12.44;62.79
73516;BME280;61763;51.416;5.442;2023-04-10T08:12:38;101572.22;;;12.72;61.97
73516;BME280;61763;51.416;5.442;2023-04-10T08:15:04;101564.16;;;12.89;60.92
73516;BME280;61763;51.416;5.442;2023-04-10T08:17:30;101573.44;;;13.22;60.45
73516;BME280;61763;51.416;5.442;2023-04-10T08:19:55;101571.63;;;13.22;59.69
73516;BME280;61763;51.416;5.442;2023-04-10T08:22:21;101573.69;;;13.54;59.22
73516;BME280;61763;51.416;5.442;2023-04-10T08:24:46;101564.34;;;13.59;59.27
73516;BME280;61763;51.416;5.442;2023-04-10T08:27:12;101568.88;;;13.76;58.51
73516;BME280;61763;51.416;5.442;2023-04-10T08:29:38;101573.59;;;13.73;59.11
73516;BME280;61763;51.416;5.442;2023-04-10T08:32:03;101567.28;;;13.90;58.84
73516;BME280;61763;51.416;5.442;2023-04-10T08:34:29;101566.31;;;13.91;58.59
73516;BME280;61763;51.416;5.442;2023-04-10T08:36:54;101566.16;;;13.76;58.27
73516;BME280;61763;51.416;5.442;2023-04-10T08:39:19;101567.44;;;13.69;58.47
73516;BME280;61763;51.416;5.442;2023-04-10T08:41:45;101564.19;;;13.97;57.96
73516;BME280;61763;51.416;5.442;2023-04-10T08:44:10;101560.09;;;14.06;57.43
73516;BME280;61763;51.416;5.442;2023-04-10T08:46:41;101557.50;;;14.20;58.14
73516;BME280;61763;51.416;5.442;2023-04-10T08:49:09;101546.34;;;14.09;56.73
73516;BME280;61763;51.416;5.442;2023-04-10T08:51:41;101554.13;;;14.33;57.19
73516;BME280;61763;51.416;5.442;2023-04-10T08:54:20;101557.09;;;14.28;56.16
73516;BME280;61763;51.416;5.442;2023-04-10T08:56:50;101555.88;;;14.34;56.03
73516;BME280;61763;51.416;5.442;2023-04-10T08:59:18;101556.44;;;14.57;55.13
73516;BME280;61763;51.416;5.442;2023-04-10T09:01:44;101548.97;;;14.60;55.42
73516;BME280;61763;51.416;5.442;2023-04-10T09:04:10;101553.09;;;14.51;56.34
73516;BME280;61763;51.416;5.442;2023-04-10T09:06:36;101555.56;;;14.56;56.64
73516;BME280;61763;51.416;5.442;2023-04-10T09:09:02;101549.69;;;14.48;55.39
73516;BME280;61763;51.416;5.442;2023-04-10T09:14:22;101541.31;;;14.68;55.61
73516;BME280;61763;51.416;5.442;2023-04-10T09:16:49;101540.44;;;14.84;55.03
73516;BME280;61763;51.416;5.442;2023-04-10T09:19:30;101536.66;;;15.02;54.22
73516;BME280;61763;51.416;5.442;2023-04-10T09:21:56;101536.66;;;15.18;54.33
73516;BME280;61763;51.416;5.442;2023-04-10T09:24:22;101534.03;;;15.17;56.51
73516;BME280;61763;51.416;5.442;2023-04-10T09:26:48;101533.09;;;15.32;54.47
73516;BME280;61763;51.416;5.442;2023-04-10T09:29:13;101530.44;;;15.47;54.61
73516;BME280;61763;51.416;5.442;2023-04-10T09:31:41;101520.63;;;15.44;53.95
73516;BME280;61763;51.416;5.442;2023-04-10T09:34:19;101514.44;;;15.56;53.09
73516;BME280;61763;51.416;5.442;2023-04-10T09:36:53;101505.09;;;15.46;54.62
73516;BME280;61763;51.416;5.442;2023-04-10T09:39:19;101499.59;;;15.62;54.34
73516;BME280;61763;51.416;5.442;2023-04-10T09:41:53;101500.09;;;15.38;53.76
73516;BME280;61763;51.416;5.442;2023-04-10T09:44:33;101485.91;;;15.33;53.78
73516;BME280;61763;51.416;5.442;2023-04-10T09:47:18;101484.72;;;15.23;54.65
73516;BME280;61763;51.416;5.442;2023-04-10T09:49:54;101477.50;;;15.07;55.56
73516;BME280;61763;51.416;5.442;2023-04-10T09:52:26;101472.44;;;15.16;54.23
73516;BME280;61763;51.416;5.442;2023-04-10T09:57:24;101471.97;;;14.93;55.51
73516;BME280;61763;51.416;5.442;2023-04-10T09:59:54;101469.63;;;15.17;55.29
73516;BME280;61763;51.416;5.442;2023-04-10T10:02:28;101471.78;;;15.27;54.09
73516;BME280;61763;51.416;5.442;2023-04-10T10:04:54;101467.31;;;15.41;54.55
73516;BME280;61763;51.416;5.442;2023-04-10T10:07:21;101472.06;;;15.22;56.42
73516;BME280;61763;51.416;5.442;2023-04-10T10:09:50;101462.94;;;15.68;53.99
73516;BME280;61763;51.416;5.442;2023-04-10T10:12:20;101457.06;;;15.75;53.06
73516;BME280;61763;51.416;5.442;2023-04-10T10:14:57;101454.75;;;15.84;52.88
73516;BME280;61763;51.416;5.442;2023-04-10T10:17:30;101441.34;;;16.09;52.12
73516;BME280;61763;51.416;5.442;2023-04-10T10:20:04;101429.63;;;16.22;52.03
73516;BME280;61763;51.416;5.442;2023-04-10T10:22:32;101435.41;;;16.03;52.24
73516;BME280;61763;51.416;5.442;2023-04-10T10:24:58;101430.44;;;16.24;51.94
73516;BME280;61763;51.416;5.442;2023-04-10T10:27:25;101424.34;;;16.48;51.32
73516;BME280;61763;51.416;5.442;2023-04-10T10:29:53;101420.81;;;16.60;50.38
73516;BME280;61763;51.416;5.442;2023-04-10T10:32:20;101422.56;;;16.88;49.13
73516;BME280;61763;51.416;5.442;2023-04-10T10:34:46;101415.94;;;16.92;49.24
73516;BME280;61763;51.416;5.442;2023-04-10T10:37:12;101421.28;;;16.94;49.53
73516;BME280;61763;51.416;5.442;2023-04-10T10:39:49;101400.69;;;17.03;49.14
73516;BME280;61763;51.416;5.442;2023-04-10T10:45:10;101393.75;;;17.24;49.53
73516;BME280;61763;51.416;5.442;2023-04-10T10:47:55;101403.22;;;17.06;48.68
73516;BME280;61763;51.416;5.442;2023-04-10T10:50:21;101399.50;;;16.79;48.42
73516;BME280;61763;51.416;5.442;2023-04-10T10:52:51;101387.69;;;16.39;49.62
73516;BME280;61763;51.416;5.442;2023-04-10T10:57:53;101384.03;;;16.53;49.50
73516;BME280;61763;51.416;5.442;2023-04-10T11:00:22;101371.94;;;16.29;49.66
73516;BME280;61763;51.416;5.442;2023-04-10T11:13:39;101354.25;;;17.56;46.71
73516;BME280;61763;51.416;5.442;2023-04-10T11:16:06;101353.38;;;17.42;46.97
73516;BME280;61763;51.416;5.442;2023-04-10T11:26:37;101331.22;;;17.60;46.38
73516;BME280;61763;51.416;5.442;2023-04-10T11:34:21;101315.72;;;17.60;46.15
73516;BME280;61763;51.416;5.442;2023-04-10T11:36:47;101304.44;;;17.65;46.50
73516;BME280;61763;51.416;5.442;2023-04-10T11:39:14;101318.09;;;17.78;46.22
73516;BME280;61763;51.416;5.442;2023-04-10T11:44:13;101291.84;;;17.51;46.60
73516;BME280;61763;51.416;5.442;2023-04-10T11:46:43;101296.25;;;17.65;47.30
73516;BME280;61763;51.416;5.442;2023-04-10T11:49:11;101288.53;;;18.09;47.66
73516;BME280;61763;51.416;5.442;2023-04-10T11:51:37;101280.56;;;18.06;45.62
73516;BME280;61763;51.416;5.442;2023-04-10T11:54:04;101279.06;;;18.01;45.47
73516;BME280;61763;51.416;5.442;2023-04-10T11:56:30;101286.19;;;17.91;45.78
73516;BME280;61763;51.416;5.442;2023-04-10T11:58:55;101279.34;;;17.73;45.69
73516;BME280;61763;51.416;5.442;2023-04-10T12:01:22;101278.19;;;18.01;46.86
73516;BME280;61763;51.416;5.442;2023-04-10T12:03:47;101281.28;;;18.20;46.86
73516;BME280;61763;51.416;5.442;2023-04-10T12:06:13;101276.69;;;18.45;44.51
73516;BME280;61763;51.416;5.442;2023-04-10T12:08:43;101274.00;;;18.32;45.00
73516;BME280;61763;51.416;5.442;2023-04-10T12:11:20;101260.81;;;18.26;44.79
73516;BME280;61763;51.416;5.442;2023-04-10T12:13:46;101251.34;;;18.19;46.02
73516;BME280;61763;51.416;5.442;2023-04-10T12:16:12;101260.53;;;17.94;45.98
73516;BME280;61763;51.416;5.442;2023-04-10T12:18:38;101254.25;;;18.29;44.76
73516;BME280;61763;51.416;5.442;2023-04-10T12:21:05;101252.06;;;18.10;45.12
73516;BME280;61763;51.416;5.442;2023-04-10T12:23:35;101247.09;;;17.91;45.36
73516;BME280;61763;51.416;5.442;2023-04-10T12:26:09;101239.81;;;18.27;46.02
73516;BME280;61763;51.416;5.442;2023-04-10T12:28:36;101241.81;;;18.25;44.97
73516;BME280;61763;51.416;5.442;2023-04-10T12:31:03;101240.09;;;17.99;45.82
73516;BME280;61763;51.416;5.442;2023-04-10T12:33:28;101240.19;;;18.22;45.76
73516;BME280;61763;51.416;5.442;2023-04-10T12:35:55;101225.00;;;18.42;44.66
73516;BME280;61763;51.416;5.442;2023-04-10T12:38:37;101218.22;;;18.24;45.39
73516;BME280;61763;51.416;5.442;2023-04-10T12:41:02;101225.13;;;18.16;46.10
73516;BME280;61763;51.416;5.442;2023-04-10T12:43:41;101225.97;;;18.41;46.64
73516;BME280;61763;51.416;5.442;2023-04-10T12:46:09;101216.94;;;17.92;46.05
73516;BME280;61763;51.416;5.442;2023-04-10T12:48:46;101216.84;;;17.81;46.47
73516;BME280;61763;51.416;5.442;2023-04-10T12:51:11;101211.38;;;17.57;47.20
73516;BME280;61763;51.416;5.442;2023-04-10T12:53:46;101215.31;;;17.52;46.89
73516;BME280;61763;51.416;5.442;2023-04-10T12:56:12;101210.44;;;17.45;46.95
73516;BME280;61763;51.416;5.442;2023-04-10T12:58:38;101208.81;;;17.16;48.05
73516;BME280;61763;51.416;5.442;2023-04-10T13:01:05;101202.50;;;17.16;48.29
73516;BME280;61763;51.416;5.442;2023-04-10T13:03:35;101205.91;;;17.20;48.59
73516;BME280;61763;51.416;5.442;2023-04-10T13:06:01;101202.22;;;17.08;47.79
73516;BME280;61763;51.416;5.442;2023-04-10T13:08:27;101195.34;;;16.89;48.55
73516;BME280;61763;51.416;5.442;2023-04-10T13:10:56;101173.06;;;17.08;48.38
73516;BME280;61763;51.416;5.442;2023-04-10T13:13:26;101170.81;;;17.02;47.57
73516;BME280;61763;51.416;5.442;2023-04-10T13:15:52;101175.59;;;16.98;47.47
73516;BME280;61763;51.416;5.442;2023-04-10T13:18:19;101168.50;;;16.83;47.33
73516;BME280;61763;51.416;5.442;2023-04-10T13:20:44;101161.72;;;16.76;47.70
73516;BME280;61763;51.416;5.442;2023-04-10T13:23:09;101160.75;;;16.64;47.90
73516;BME280;61763;51.416;5.442;2023-04-10T13:25:37;101161.63;;;16.77;49.30
73516;BME280;61763;51.416;5.442;2023-04-10T13:28:04;101147.03;;;16.78;48.31
73516;BME280;61763;51.416;5.442;2023-04-10T13:30:34;101147.13;;;16.64;48.06
73516;BME280;61763;51.416;5.442;2023-04-10T13:33:00;101129.69;;;16.67;49.06
73516;BME280;61763;51.416;5.442;2023-04-10T13:35:25;101125.00;;;16.81;49.19
73516;BME280;61763;51.416;5.442;2023-04-10T13:37:50;101124.44;;;16.76;49.83
73516;BME280;61763;51.416;5.442;2023-04-10T13:40:21;101121.03;;;16.86;49.36
73516;BME280;61763;51.416;5.442;2023-04-10T13:42:47;101113.31;;;17.05;49.04